sensor_id;sensor_type;location;lat;lon;timestamp;pressure;altitude;pressure_sealevel;temperature;humidity
7966;BME280;4028;43.272;26.932;2022-09-09T00:04:31;99311.81;;;18.87;100.00
7966;BME280;4028;43.272;26.932;2022-09-09T00:15:40;99314.91;;;18.84;100.00
7966;BME280;4028;43.272;26.932;2022-09-09T00:18:21;99313.63;;;18.80;100.00
7966;BME280;4028;43.272;26.932;2022-09-09T00:21:06;99310.84;;;18.73;100.00
7966;BME280;4028;43.272;26.932;2022-09-09T00:23:56;99288.63;;;18.58;100.00
7966;BME280;4028;43.272;26.932;2022-09-09T00:26:29;99301.38;;;18.70;100.00
7966;BME280;4028;43.272;26.932;2022-09-09T00:31:38;99299.88;;;18.68;100.00
7966;BME280;4028;43.272;26.932;2022-09-09T00:34:15;99302.47;;;18.61;100.00
7966;BME280;4028;43.272;26.932;2022-09-09T00:36:42;99269.97;;;18.43;100.00
7966;BME280;4028;43.272;26.932;2022-09-09T00:42:16;99295.66;;;18.59;100.00
7966;BME280;4028;43.272;26.932;2022-09-09T00:45:03;99292.41;;;18.63;100.00
7966;BME280;4028;43.272;26.932;2022-09-09T00:47:54;99291.50;;;18.56;100.00
7966;BME280;4028;43.272;26.932;2022-09-09T00:55:45;99289.16;;;18.47;100.00
7966;BME280;4028;43.272;26.932;2022-09-09T00:58:13;99283.53;;;18.41;100.00
7966;BME280;4028;43.272;26.932;2022-09-09T01:00:44;99292.22;;;18.43;100.00
7966;BME280;4028;43.272;26.932;2022-09-09T01:09:16;99282.50;;;18.42;100.00
7966;BME280;4028;43.272;26.932;2022-09-09T01:12:05;99277.75;;;18.38;100.00
7966;BME280;4028;43.272;26.932;2022-09-09T01:17:08;99272.53;;;18.15;100.00
7966;BME280;4028;43.272;26.932;2022-09-09T01:27:34;99289.34;;;18.24;100.00
7966;BME280;4028;43.272;26.932;2022-09-09T01:30:04;99282.94;;;18.25;100.00
7966;BME280;4028;43.272;26.932;2022-09-09T01:35:08;99290.25;;;18.16;100.00
7966;BME280;4028;43.272;26.932;2022-09-09T01:37:36;99282.22;;;18.16;100.00
7966;BME280;4028;43.272;26.932;2022-09-09T01:40:03;99284.66;;;18.11;100.00
7966;BME280;4028;43.272;26.932;2022-09-09T01:42:28;99279.13;;;18.12;100.00
7966;BME280;4028;43.272;26.932;2022-09-09T01:44:54;99278.84;;;18.07;100.00
7966;BME280;4028;43.272;26.932;2022-09-09T01:47:20;99282.09;;;18.03;100.00
7966;BME280;4028;43.272;26.932;2022-09-09T01:49:45;99277.78;;;18.02;100.00
7966;BME280;4028;43.272;26.932;2022-09-09T01:52:11;99278.13;;;17.99;100.00
7966;BME280;4028;43.272;26.932;2022-09-09T01:54:37;99287.56;;;17.95;100.00
7966;BME280;4028;43.272;26.932;2022-09-09T02:00:08;99296.69;;;17.85;100.00
7966;BME280;4028;43.272;26.932;2022-09-09T02:02:55;99292.84;;;17.88;100.00
7966;BME280;4028;43.272;26.932;2022-09-09T02:05:35;99291.91;;;17.81;100.00
7966;BME280;4028;43.272;26.932;2022-09-09T02:08:11;99288.22;;;17.82;100.00
7966;BME280;4028;43.272;26.932;2022-09-09T02:13:29;99282.63;;;17.77;100.00
7966;BME280;4028;43.272;26.932;2022-09-09T02:16:04;99282.31;;;17.72;100.00
7966;BME280;4028;43.272;26.932;2022-09-09T02:18:36;99271.06;;;17.61;100.00
7966;BME280;4028;43.272;26.932;2022-09-09T02:21:05;99276.03;;;17.64;100.00
7966;BME280;4028;43.272;26.932;2022-09-09T02:23:33;99296.59;;;17.64;100.00
7966;BME280;4028;43.272;26.932;2022-09-09T02:26:00;99299.34;;;17.71;100.00
7966;BME280;4028;43.272;26.932;2022-09-09T02:28:29;99293.84;;;17.72;100.00
7966;BME280;4028;43.272;26.932;2022-09-09T02:30:56;99289.69;;;17.70;100.00
7966;BME280;4028;43.272;26.932;2022-09-09T02:33:26;99267.38;;;17.48;100.00
7966;BME280;4028;43.272;26.932;2022-09-09T02:35:53;99285.63;;;17.59;100.00
7966;BME280;4028;43.272;26.932;2022-09-09T02:38:25;99283.63;;;17.61;100.00
7966;BME280;4028;43.272;26.932;2022-09-09T02:40:52;99288.69;;;17.56;100.00
7966;BME280;4028;43.272;26.932;2022-09-09T02:43:18;99281.56;;;17.48;100.00
7966;BME280;4028;43.272;26.932;2022-09-09T02:49:03;99280.81;;;17.54;100.00
7966;BME280;4028;43.272;26.932;2022-09-09T02:54:28;99275.13;;;17.57;100.00
7966;BME280;4028;43.272;26.932;2022-09-09T02:56:57;99266.53;;;17.47;100.00
7966;BME280;4028;43.272;26.932;2022-09-09T02:59:27;99268.47;;;17.53;100.00
7966;BME280;4028;43.272;26.932;2022-09-09T03:01:53;99269.09;;;17.55;100.00
7966;BME280;4028;43.272;26.932;2022-09-09T03:04:18;99253.72;;;17.42;100.00
7966;BME280;4028;43.272;26.932;2022-09-09T03:06:44;99272.81;;;17.54;100.00
7966;BME280;4028;43.272;26.932;2022-09-09T03:09:09;99269.69;;;17.51;100.00
7966;BME280;4028;43.272;26.932;2022-09-09T03:11:36;99264.63;;;17.41;100.00
7966;BME280;4028;43.272;26.932;2022-09-09T03:14:02;99267.28;;;17.41;100.00
7966;BME280;4028;43.272;26.932;2022-09-09T03:16:27;99268.75;;;17.44;100.00
7966;BME280;4028;43.272;26.932;2022-09-09T03:18:53;99264.63;;;17.41;100.00
7966;BME280;4028;43.272;26.932;2022-09-09T03:21:18;99274.09;;;17.44;100.00
7966;BME280;4028;43.272;26.932;2022-09-09T03:23:44;99258.72;;;17.31;100.00
7966;BME280;4028;43.272;26.932;2022-09-09T03:26:10;99264.50;;;17.34;100.00
7966;BME280;4028;43.272;26.932;2022-09-09T03:28:35;99274.03;;;17.37;100.00
7966;BME280;4028;43.272;26.932;2022-09-09T03:31:05;99276.97;;;17.42;100.00
7966;BME280;4028;43.272;26.932;2022-09-09T03:33:31;99271.97;;;17.39;100.00
7966;BME280;4028;43.272;26.932;2022-09-09T03:35:57;99271.97;;;17.39;100.00
7966;BME280;4028;43.272;26.932;2022-09-09T03:38:26;99269.50;;;17.37;100.00
7966;BME280;4028;43.272;26.932;2022-09-09T03:40:53;99267.00;;;17.36;100.00
7966;BME280;4028;43.272;26.932;2022-09-09T03:43:24;99268.66;;;17.37;100.00
7966;BME280;4028;43.272;26.932;2022-09-09T03:45:50;99260.44;;;17.38;100.00
7966;BME280;4028;43.272;26.932;2022-09-09T03:48:16;99257.69;;;17.32;100.00
7966;BME280;4028;43.272;26.932;2022-09-09T03:50:50;99260.56;;;17.30;100.00
7966;BME280;4028;43.272;26.932;2022-09-09T03:53:18;99257.88;;;17.30;100.00
7966;BME280;4028;43.272;26.932;2022-09-09T03:55:49;99262.38;;;17.30;100.00
7966;BME280;4028;43.272;26.932;2022-09-09T03:58:18;99256.66;;;17.33;100.00
7966;BME280;4028;43.272;26.932;2022-09-09T04:00:56;99259.16;;;17.34;100.00
7966;BME280;4028;43.272;26.932;2022-09-09T04:03:22;99252.44;;;17.38;100.00
7966;BME280;4028;43.272;26.932;2022-09-09T04:05:53;99253.44;;;17.37;100.00
7966;BME280;4028;43.272;26.932;2022-09-09T04:08:20;99261.28;;;17.39;100.00
7966;BME280;4028;43.272;26.932;2022-09-09T04:10:48;99269.13;;;17.40;100.00
7966;BME280;4028;43.272;26.932;2022-09-09T04:13:16;99268.28;;;17.40;100.00
7966;BME280;4028;43.272;26.932;2022-09-09T04:15:44;99267.56;;;17.46;100.00
7966;BME280;4028;43.272;26.932;2022-09-09T04:18:10;99270.88;;;17.48;100.00
7966;BME280;4028;43.272;26.932;2022-09-09T04:20:37;99251.25;;;17.41;100.00
7966;BME280;4028;43.272;26.932;2022-09-09T04:23:03;99265.53;;;17.48;100.00
7966;BME280;4028;43.272;26.932;2022-09-09T04:25:28;99260.19;;;17.48;100.00
7966;BME280;4028;43.272;26.932;2022-09-09T04:27:57;99269.78;;;17.57;100.00
7966;BME280;4028;43.272;26.932;2022-09-09T04:30:24;99268.94;;;17.57;100.00
7966;BME280;4028;43.272;26.932;2022-09-09T04:32:50;99264.41;;;17.57;100.00
7966;BME280;4028;43.272;26.932;2022-09-09T04:35:15;99266.53;;;17.62;100.00
7966;BME280;4028;43.272;26.932;2022-09-09T04:37:41;99265.72;;;17.61;100.00
7966;BME280;4028;43.272;26.932;2022-09-09T04:40:07;99240.81;;;17.46;100.00
7966;BME280;4028;43.272;26.932;2022-09-09T04:42:38;99270.03;;;17.62;100.00
7966;BME280;4028;43.272;26.932;2022-09-09T04:45:05;99274.44;;;17.70;100.00
7966;BME280;4028;43.272;26.932;2022-09-09T04:47:31;99282.63;;;17.77;100.00
7966;BME280;4028;43.272;26.932;2022-09-09T04:49:57;99285.56;;;17.82;100.00
7966;BME280;4028;43.272;26.932;2022-09-09T04:52:22;99275.94;;;17.87;100.00
7966;BME280;4028;43.272;26.932;2022-09-09T04:54:47;99276.38;;;17.91;100.00
7966;BME280;4028;43.272;26.932;2022-09-09T04:57:13;99279.72;;;17.93;100.00
7966;BME280;4028;43.272;26.932;2022-09-09T04:59:39;99278.13;;;17.99;100.00
7966;BME280;4028;43.272;26.932;2022-09-09T05:02:05;99273.25;;;18.02;100.00
7966;BME280;4028;43.272;26.932;2022-09-09T05:04:31;99162.50;;;17.37;100.00
7966;BME280;4028;43.272;26.932;2022-09-09T05:06:56;99274.34;;;18.08;100.00
7966;BME280;4028;43.272;26.932;2022-09-09T05:09:22;99274.13;;;18.09;100.00
7966;BME280;4028;43.272;26.932;2022-09-09T05:11:47;99284.91;;;18.16;100.00
7966;BME280;4028;43.272;26.932;2022-09-09T05:14:14;99275.88;;;18.17;100.00
7966;BME280;4028;43.272;26.932;2022-09-09T05:16:40;99280.28;;;18.25;100.00
7966;BME280;4028;43.272;26.932;2022-09-09T05:19:06;99261.84;;;18.15;100.00
7966;BME280;4028;43.272;26.932;2022-09-09T05:21:33;99268.28;;;18.21;100.00
7966;BME280;4028;43.272;26.932;2022-09-09T05:23:59;99277.91;;;18.36;100.00
7966;BME280;4028;43.272;26.932;2022-09-09T05:26:25;99209.16;;;18.01;100.00
7966;BME280;4028;43.272;26.932;2022-09-09T05:28:51;99269.88;;;18.36;100.00
7966;BME280;4028;43.272;26.932;2022-09-09T05:31:17;99275.50;;;18.41;100.00
7966;BME280;4028;43.272;26.932;2022-09-09T05:33:44;99273.31;;;18.52;100.00
7966;BME280;4028;43.272;26.932;2022-09-09T05:36:21;99274.66;;;18.62;100.00
7966;BME280;4028;43.272;26.932;2022-09-09T05:38:46;99284.91;;;18.74;100.00
7966;BME280;4028;43.272;26.932;2022-09-09T05:41:13;99278.94;;;18.78;100.00
7966;BME280;4028;43.272;26.932;2022-09-09T05:43:41;99268.72;;;18.88;100.00
7966;BME280;4028;43.272;26.932;2022-09-09T05:46:11;99266.09;;;18.95;100.00
7966;BME280;4028;43.272;26.932;2022-09-09T05:48:39;99266.38;;;19.07;100.00
7966;BME280;4028;43.272;26.932;2022-09-09T05:51:06;99269.34;;;19.18;100.00
7966;BME280;4028;43.272;26.932;2022-09-09T05:53:32;99274.44;;;19.35;100.00
7966;BME280;4028;43.272;26.932;2022-09-09T05:58:32;99249.44;;;19.69;100.00
7966;BME280;4028;43.272;26.932;2022-09-09T06:01:08;99270.69;;;20.32;100.00
7966;BME280;4028;43.272;26.932;2022-09-09T06:03:35;99271.41;;;21.00;95.43
7966;BME280;4028;43.272;26.932;2022-09-09T06:06:04;99269.38;;;21.80;85.47
7966;BME280;4028;43.272;26.932;2022-09-09T06:08:34;99255.16;;;22.49;73.70
7966;BME280;4028;43.272;26.932;2022-09-09T06:13:37;99271.03;;;24.54;60.62
7966;BME280;4028;43.272;26.932;2022-09-09T06:16:04;99270.63;;;25.04;56.09
7966;BME280;4028;43.272;26.932;2022-09-09T06:18:30;99262.09;;;25.83;53.15
7966;BME280;4028;43.272;26.932;2022-09-09T06:20:58;99258.09;;;26.14;50.39
7966;BME280;4028;43.272;26.932;2022-09-09T06:23:25;99265.97;;;26.73;48.84
7966;BME280;4028;43.272;26.932;2022-09-09T06:25:51;99264.56;;;27.20;47.21
7966;BME280;4028;43.272;26.932;2022-09-09T06:28:17;99274.28;;;27.55;46.38
7966;BME280;4028;43.272;26.932;2022-09-09T06:30:43;99248.97;;;27.71;44.60
7966;BME280;4028;43.272;26.932;2022-09-09T06:33:10;99245.22;;;27.56;43.80
7966;BME280;4028;43.272;26.932;2022-09-09T06:35:35;99265.91;;;28.01;43.33
7966;BME280;4028;43.272;26.932;2022-09-09T06:38:01;99277.56;;;28.23;42.34
7966;BME280;4028;43.272;26.932;2022-09-09T06:40:26;99266.81;;;28.33;41.37
7966;BME280;4028;43.272;26.932;2022-09-09T06:42:52;99268.69;;;28.60;41.71
7966;BME280;4028;43.272;26.932;2022-09-09T06:45:17;99266.31;;;28.95;39.93
7966;BME280;4028;43.272;26.932;2022-09-09T06:47:43;99267.25;;;29.16;38.57
7966;BME280;4028;43.272;26.932;2022-09-09T06:50:09;99269.38;;;28.72;38.88
7966;BME280;4028;43.272;26.932;2022-09-09T06:52:36;99277.13;;;28.90;39.04
7966;BME280;4028;43.272;26.932;2022-09-09T06:55:02;99250.78;;;28.96;37.54
7966;BME280;4028;43.272;26.932;2022-09-09T06:57:29;99269.75;;;29.65;37.92
7966;BME280;4028;43.272;26.932;2022-09-09T06:59:54;99269.72;;;29.60;35.68
7966;BME280;4028;43.272;26.932;2022-09-09T07:02:20;99265.84;;;30.14;36.77
7966;BME280;4028;43.272;26.932;2022-09-09T07:04:46;99252.22;;;30.19;33.07
7966;BME280;4028;43.272;26.932;2022-09-09T07:07:12;99267.28;;;30.37;33.06
7966;BME280;4028;43.272;26.932;2022-09-09T07:09:40;99272.41;;;30.18;32.91
7966;BME280;4028;43.272;26.932;2022-09-09T07:12:06;99277.94;;;29.65;32.69
7966;BME280;4028;43.272;26.932;2022-09-09T07:14:32;99267.41;;;29.89;32.75
7966;BME280;4028;43.272;26.932;2022-09-09T07:16:59;99258.69;;;29.92;32.56
7966;BME280;4028;43.272;26.932;2022-09-09T07:19:25;99265.41;;;29.69;32.80
7966;BME280;4028;43.272;26.932;2022-09-09T07:21:51;99273.41;;;29.96;32.61
7966;BME280;4028;43.272;26.932;2022-09-09T07:24:16;99267.56;;;30.50;33.23
7966;BME280;4028;43.272;26.932;2022-09-09T07:26:42;99252.00;;;31.17;32.30
7966;BME280;4028;43.272;26.932;2022-09-09T07:29:08;99264.44;;;31.74;30.50
7966;BME280;4028;43.272;26.932;2022-09-09T07:31:35;99266.94;;;31.66;31.24
7966;BME280;4028;43.272;26.932;2022-09-09T07:34:02;99256.16;;;31.95;30.58
7966;BME280;4028;43.272;26.932;2022-09-09T07:36:30;99269.28;;;31.93;29.78
7966;BME280;4028;43.272;26.932;2022-09-09T07:39:00;99261.50;;;31.50;31.02
7966;BME280;4028;43.272;26.932;2022-09-09T07:41:29;99247.66;;;31.96;30.42
7966;BME280;4028;43.272;26.932;2022-09-09T07:43:58;99253.19;;;31.86;30.32
7966;BME280;4028;43.272;26.932;2022-09-09T07:46:25;99249.94;;;32.28;30.02
7966;BME280;4028;43.272;26.932;2022-09-09T07:48:55;99239.03;;;32.18;29.99
7966;BME280;4028;43.272;26.932;2022-09-09T07:51:26;99243.88;;;32.71;30.77
7966;BME280;4028;43.272;26.932;2022-09-09T07:53:58;99243.91;;;33.29;29.99
7966;BME280;4028;43.272;26.932;2022-09-09T07:56:26;99257.84;;;33.08;28.84
7966;BME280;4028;43.272;26.932;2022-09-09T07:58:53;99250.47;;;33.04;28.52
7966;BME280;4028;43.272;26.932;2022-09-09T08:01:27;99240.16;;;32.62;29.29
7966;BME280;4028;43.272;26.932;2022-09-09T08:04:01;99231.00;;;31.93;30.11
7966;BME280;4028;43.272;26.932;2022-09-09T08:06:29;99229.22;;;32.17;30.00
7966;BME280;4028;43.272;26.932;2022-09-09T08:08:55;99223.91;;;32.31;30.81
7966;BME280;4028;43.272;26.932;2022-09-09T08:11:23;99213.06;;;32.89;29.41
7966;BME280;4028;43.272;26.932;2022-09-09T08:13:50;99198.31;;;32.80;29.01
7966;BME280;4028;43.272;26.932;2022-09-09T08:16:22;99214.19;;;32.54;29.78
7966;BME280;4028;43.272;26.932;2022-09-09T08:18:49;99213.50;;;32.33;30.17
7966;BME280;4028;43.272;26.932;2022-09-09T08:21:17;99207.84;;;32.58;30.70
7966;BME280;4028;43.272;26.932;2022-09-09T08:23:45;99208.56;;;33.03;29.79
7966;BME280;4028;43.272;26.932;2022-09-09T08:26:16;99217.28;;;33.05;29.66
7966;BME280;4028;43.272;26.932;2022-09-09T08:28:42;99199.31;;;32.94;30.29
7966;BME280;4028;43.272;26.932;2022-09-09T08:31:14;99213.06;;;33.42;29.45
7966;BME280;4028;43.272;26.932;2022-09-09T08:33:41;99202.97;;;33.61;29.76
7966;BME280;4028;43.272;26.932;2022-09-09T08:36:10;99210.69;;;33.59;29.09
7966;BME280;4028;43.272;26.932;2022-09-09T08:38:37;99207.81;;;33.70;28.71
7966;BME280;4028;43.272;26.932;2022-09-09T08:44:08;99188.97;;;33.39;29.29
7966;BME280;4028;43.272;26.932;2022-09-09T08:55:34;99208.06;;;33.49;29.97
7966;BME280;4028;43.272;26.932;2022-09-09T08:58:09;99212.31;;;33.60;29.94
7966;BME280;4028;43.272;26.932;2022-09-09T09:00:50;99208.06;;;33.49;30.18
7966;BME280;4028;43.272;26.932;2022-09-09T09:03:45;99210.06;;;33.62;29.84
7966;BME280;4028;43.272;26.932;2022-09-09T09:06:42;99223.09;;;33.52;30.20
7966;BME280;4028;43.272;26.932;2022-09-09T09:11:44;99199.81;;;33.73;30.32
7966;BME280;4028;43.272;26.932;2022-09-09T09:14:17;99204.25;;;33.88;30.22
7966;BME280;4028;43.272;26.932;2022-09-09T09:16:53;99196.25;;;33.92;29.95
7966;BME280;4028;43.272;26.932;2022-09-09T09:19:20;99194.91;;;33.70;29.62
7966;BME280;4028;43.272;26.932;2022-09-09T09:22:35;99199.38;;;33.37;29.72
7966;BME280;4028;43.272;26.932;2022-09-09T09:24:56;99191.00;;;33.52;30.03
7966;BME280;4028;43.272;26.932;2022-09-09T09:27:32;99197.66;;;33.89;29.74
7966;BME280;4028;43.272;26.932;2022-09-09T09:30:00;99185.63;;;33.85;29.94
7966;BME280;4028;43.272;26.932;2022-09-09T09:32:29;99201.00;;;33.43;29.80
7966;BME280;4028;43.272;26.932;2022-09-09T09:34:57;99184.94;;;33.07;31.10
7966;BME280;4028;43.272;26.932;2022-09-09T09:37:32;99171.00;;;33.28;31.09
7966;BME280;4028;43.272;26.932;2022-09-09T09:40:14;99167.25;;;33.19;31.04
7966;BME280;4028;43.272;26.932;2022-09-09T09:42:55;99149.69;;;33.20;30.63
7966;BME280;4028;43.272;26.932;2022-09-09T09:45:42;99158.78;;;33.39;30.52
7966;BME280;4028;43.272;26.932;2022-09-09T09:48:12;99148.69;;;33.34;32.14
7966;BME280;4028;43.272;26.932;2022-09-09T09:51:00;99152.19;;;33.40;31.84
7966;BME280;4028;43.272;26.932;2022-09-09T09:53:33;99151.50;;;33.29;31.16
7966;BME280;4028;43.272;26.932;2022-09-09T09:56:05;99130.44;;;32.77;31.89
7966;BME280;4028;43.272;26.932;2022-09-09T09:58:52;99149.06;;;32.75;32.19
7966;BME280;4028;43.272;26.932;2022-09-09T10:01:30;99156.38;;;32.84;31.58
7966;BME280;4028;43.272;26.932;2022-09-09T10:04:18;99146.31;;;32.75;31.54
7966;BME280;4028;43.272;26.932;2022-09-09T10:06:46;99158.94;;;32.47;32.25
7966;BME280;4028;43.272;26.932;2022-09-09T10:09:29;99163.72;;;32.60;31.62
7966;BME280;4028;43.272;26.932;2022-09-09T10:14:46;99154.28;;;32.76;32.52
7966;BME280;4028;43.272;26.932;2022-09-09T10:17:22;99155.47;;;32.94;31.10
7966;BME280;4028;43.272;26.932;2022-09-09T10:20:45;99150.94;;;33.08;31.27
7966;BME280;4028;43.272;26.932;2022-09-09T10:22:50;99165.25;;;33.00;30.86
7966;BME280;4028;43.272;26.932;2022-09-09T10:25:24;99169.34;;;32.74;30.65
7966;BME280;4028;43.272;26.932;2022-09-09T10:36:19;99158.69;;;32.43;31.85
7966;BME280;4028;43.272;26.932;2022-09-09T10:38:47;99148.25;;;32.74;30.79
7966;BME280;4028;43.272;26.932;2022-09-09T10:41:40;99140.91;;;32.70;30.75
7966;BME280;4028;43.272;26.932;2022-09-09T10:44:21;99143.25;;;32.81;30.33
7966;BME280;4028;43.272;26.932;2022-09-09T10:50:01;99132.44;;;32.95;30.36
7966;BME280;4028;43.272;26.932;2022-09-09T10:55:48;99143.28;;;33.05;30.31
7966;BME280;4028;43.272;26.932;2022-09-09T10:58:50;99148.19;;;33.08;30.40
7966;BME280;4028;43.272;26.932;2022-09-09T11:01:39;99136.66;;;32.82;30.09
7966;BME280;4028;43.272;26.932;2022-09-09T11:04:21;99136.03;;;32.91;30.18
7966;BME280;4028;43.272;26.932;2022-09-09T11:06:52;99138.81;;;32.85;30.28
7966;BME280;4028;43.272;26.932;2022-09-09T11:09:22;99133.78;;;32.69;30.49
7966;BME280;4028;43.272;26.932;2022-09-09T11:11:54;99142.78;;;32.74;30.40
7966;BME280;4028;43.272;26.932;2022-09-09T11:14:29;99123.69;;;32.93;30.11
7966;BME280;4028;43.272;26.932;2022-09-09T11:17:02;99130.06;;;33.31;29.92
7966;BME280;4028;43.272;26.932;2022-09-09T11:19:38;99124.22;;;33.19;29.88
7966;BME280;4028;43.272;26.932;2022-09-09T11:24:53;99116.31;;;32.89;30.25
7966;BME280;4028;43.272;26.932;2022-09-09T11:30:05;99104.56;;;33.12;30.55
7966;BME280;4028;43.272;26.932;2022-09-09T11:33:13;99100.94;;;33.17;30.13
7966;BME280;4028;43.272;26.932;2022-09-09T11:38:46;99117.09;;;33.18;30.26
7966;BME280;4028;43.272;26.932;2022-09-09T11:41:13;99082.38;;;32.84;30.82
7966;BME280;4028;43.272;26.932;2022-09-09T11:43:41;99111.38;;;33.15;30.66
7966;BME280;4028;43.272;26.932;2022-09-09T11:46:08;99103.72;;;33.11;30.96
7966;BME280;4028;43.272;26.932;2022-09-09T11:48:36;99055.31;;;33.07;31.63
7966;BME280;4028;43.272;26.932;2022-09-09T11:53:59;99096.16;;;33.27;30.24
7966;BME280;4028;43.272;26.932;2022-09-09T11:56:31;99092.94;;;33.44;30.44
7966;BME280;4028;43.272;26.932;2022-09-09T11:59:06;99086.31;;;33.02;30.64
7966;BME280;4028;43.272;26.932;2022-09-09T12:01:40;99102.97;;;32.82;30.51
7966;BME280;4028;43.272;26.932;2022-09-09T12:04:21;99092.53;;;32.84;30.24
7966;BME280;4028;43.272;26.932;2022-09-09T12:06:54;99081.25;;;32.91;30.24
7966;BME280;4028;43.272;26.932;2022-09-09T12:17:30;99083.78;;;32.82;30.20
7966;BME280;4028;43.272;26.932;2022-09-09T12:27:59;99052.38;;;32.74;29.54
7966;BME280;4028;43.272;26.932;2022-09-09T12:33:21;99064.56;;;32.87;29.82
7966;BME280;4028;43.272;26.932;2022-09-09T12:35:55;99063.09;;;32.71;29.58
7966;BME280;4028;43.272;26.932;2022-09-09T12:38:39;99056.41;;;32.82;29.40
7966;BME280;4028;43.272;26.932;2022-09-09T12:41:05;99063.22;;;32.84;29.73
7966;BME280;4028;43.272;26.932;2022-09-09T12:43:31;99047.78;;;32.94;29.46
7966;BME280;4028;43.272;26.932;2022-09-09T12:46:03;99042.75;;;32.77;29.58
7966;BME280;4028;43.272;26.932;2022-09-09T12:48:37;99053.34;;;32.59;30.03
7966;BME280;4028;43.272;26.932;2022-09-09T12:51:07;99036.97;;;32.54;29.79
7966;BME280;4028;43.272;26.932;2022-09-09T12:53:41;99034.84;;;32.51;30.09
7966;BME280;4028;43.272;26.932;2022-09-09T12:56:09;99034.41;;;32.39;30.61
7966;BME280;4028;43.272;26.932;2022-09-09T12:58:46;99040.53;;;32.55;30.37
7966;BME280;4028;43.272;26.932;2022-09-09T13:01:22;99036.81;;;32.70;30.33
7966;BME280;4028;43.272;26.932;2022-09-09T13:03:48;99020.44;;;32.65;29.49
7966;BME280;4028;43.272;26.932;2022-09-09T13:06:22;99024.94;;;32.55;30.24
7966;BME280;4028;43.272;26.932;2022-09-09T13:08:58;99021.66;;;31.95;30.94
7966;BME280;4028;43.272;26.932;2022-09-09T13:11:41;99020.88;;;32.19;30.58
7966;BME280;4028;43.272;26.932;2022-09-09T13:14:28;99019.78;;;31.91;30.81
7966;BME280;4028;43.272;26.932;2022-09-09T13:16:57;99002.78;;;31.94;30.85
7966;BME280;4028;43.272;26.932;2022-09-09T13:19:23;99019.91;;;32.09;30.92
7966;BME280;4028;43.272;26.932;2022-09-09T13:21:54;98994.25;;;32.00;31.47
7966;BME280;4028;43.272;26.932;2022-09-09T13:24:34;99009.56;;;32.30;30.49
7966;BME280;4028;43.272;26.932;2022-09-09T13:27:05;99025.31;;;32.15;30.77
7966;BME280;4028;43.272;26.932;2022-09-09T13:29:51;99016.81;;;32.16;30.30
7966;BME280;4028;43.272;26.932;2022-09-09T13:32:20;99004.16;;;32.25;30.09
7966;BME280;4028;43.272;26.932;2022-09-09T13:34:56;99014.22;;;32.30;30.76
7966;BME280;4028;43.272;26.932;2022-09-09T13:39:56;99013.13;;;32.31;31.01
7966;BME280;4028;43.272;26.932;2022-09-09T13:42:25;99003.69;;;32.13;31.19
7966;BME280;4028;43.272;26.932;2022-09-09T13:44:51;98991.63;;;32.14;30.54
7966;BME280;4028;43.272;26.932;2022-09-09T13:47:19;99006.69;;;32.17;30.87
7966;BME280;4028;43.272;26.932;2022-09-09T13:49:45;99010.28;;;32.12;31.03
7966;BME280;4028;43.272;26.932;2022-09-09T13:52:12;99006.06;;;31.96;31.64
7966;BME280;4028;43.272;26.932;2022-09-09T13:54:39;99007.84;;;32.11;31.49
7966;BME280;4028;43.272;26.932;2022-09-09T13:57:13;99006.22;;;32.09;31.73
7966;BME280;4028;43.272;26.932;2022-09-09T13:59:40;99003.41;;;31.86;31.68
7966;BME280;4028;43.272;26.932;2022-09-09T14:02:07;99001.97;;;31.93;31.49
7966;BME280;4028;43.272;26.932;2022-09-09T14:04:32;99000.84;;;31.99;31.27
7966;BME280;4028;43.272;26.932;2022-09-09T14:07:00;98999.28;;;31.88;31.52
7966;BME280;4028;43.272;26.932;2022-09-09T14:09:26;98994.75;;;31.68;31.38
7966;BME280;4028;43.272;26.932;2022-09-09T14:11:52;98981.53;;;31.46;31.99
7966;BME280;4028;43.272;26.932;2022-09-09T14:14:17;98985.94;;;31.42;32.17
7966;BME280;4028;43.272;26.932;2022-09-09T14:16:43;98978.56;;;31.43;32.23
7966;BME280;4028;43.272;26.932;2022-09-09T14:19:08;98983.97;;;31.48;32.33
7966;BME280;4028;43.272;26.932;2022-09-09T14:21:34;98986.69;;;31.53;32.22
7966;BME280;4028;43.272;26.932;2022-09-09T14:24:00;98978.84;;;31.41;32.21
7966;BME280;4028;43.272;26.932;2022-09-09T14:26:25;98952.41;;;31.31;32.31
7966;BME280;4028;43.272;26.932;2022-09-09T14:28:51;98976.97;;;31.37;32.69
7966;BME280;4028;43.272;26.932;2022-09-09T14:31:17;98969.06;;;31.35;32.81
7966;BME280;4028;43.272;26.932;2022-09-09T14:33:43;98962.47;;;31.36;32.36
7966;BME280;4028;43.272;26.932;2022-09-09T14:36:10;98966.88;;;31.32;33.04
7966;BME280;4028;43.272;26.932;2022-09-09T14:38:37;98963.09;;;31.28;32.96
7966;BME280;4028;43.272;26.932;2022-09-09T14:41:08;98943.78;;;31.09;32.98
7966;BME280;4028;43.272;26.932;2022-09-09T14:43:34;98955.78;;;31.13;33.11
7966;BME280;4028;43.272;26.932;2022-09-09T14:46:11;98954.19;;;31.07;33.31
7966;BME280;4028;43.272;26.932;2022-09-09T14:48:37;98953.72;;;30.90;33.61
7966;BME280;4028;43.272;26.932;2022-09-09T14:51:10;98957.00;;;30.97;33.71
7966;BME280;4028;43.272;26.932;2022-09-09T14:53:36;98957.81;;;30.97;33.49
7966;BME280;4028;43.272;26.932;2022-09-09T14:56:07;98964.13;;;30.88;33.68
7966;BME280;4028;43.272;26.932;2022-09-09T14:58:33;98949.75;;;30.72;33.77
7966;BME280;4028;43.272;26.932;2022-09-09T15:01:10;98947.25;;;30.70;34.00
7966;BME280;4028;43.272;26.932;2022-09-09T15:03:36;98949.75;;;30.62;33.85
7966;BME280;4028;43.272;26.932;2022-09-09T15:08:34;98946.28;;;30.46;34.32
7966;BME280;4028;43.272;26.932;2022-09-09T15:11:01;98956.63;;;30.44;34.21
7966;BME280;4028;43.272;26.932;2022-09-09T15:13:27;98957.75;;;30.43;34.40
7966;BME280;4028;43.272;26.932;2022-09-09T15:15:52;98960.19;;;30.39;34.67
7966;BME280;4028;43.272;26.932;2022-09-09T15:18:20;98946.38;;;30.15;35.38
7966;BME280;4028;43.272;26.932;2022-09-09T15:20:45;98965.72;;;30.19;36.24
7966;BME280;4028;43.272;26.932;2022-09-09T15:23:12;98962.16;;;30.08;37.32
7966;BME280;4028;43.272;26.932;2022-09-09T15:25:37;98971.19;;;29.98;38.21
7966;BME280;4028;43.272;26.932;2022-09-09T15:28:03;98970.66;;;29.91;38.16
7966;BME280;4028;43.272;26.932;2022-09-09T15:30:28;98964.09;;;29.87;38.47